createdAt,value
2022-07-29T00:00:28.859Z,16.42
2022-07-29T00:01:28.846Z,16.31
2022-07-29T00:02:28.909Z,16.74
2022-07-29T00:03:28.821Z,16.63
2022-07-29T00:04:28.946Z,16.42
2022-07-29T00:05:28.788Z,16.36
2022-07-29T00:06:28.790Z,16.25
2022-07-29T00:07:28.769Z,16.31
2022-07-29T00:08:28.761Z,16.25
2022-07-29T00:09:28.742Z,16.31
2022-07-29T00:10:28.730Z,16.25
2022-07-29T00:11:28.718Z,16.36
2022-07-29T00:12:28.703Z,16.31
2022-07-29T00:13:31.834Z,16.31
2022-07-29T00:14:28.678Z,16.36
2022-07-29T00:15:28.668Z,16.25
2022-07-29T00:16:28.799Z,16.25
2022-07-29T00:17:28.643Z,16.31
2022-07-29T00:18:28.626Z,16.20
2022-07-29T00:19:28.613Z,16.31
2022-07-29T00:20:28.605Z,16.25
2022-07-29T00:21:28.588Z,16.25
2022-07-29T00:22:28.578Z,16.31
2022-07-29T00:23:29.848Z,16.25
2022-07-29T00:24:28.550Z,16.25
2022-07-29T00:25:28.537Z,16.25
2022-07-29T00:26:28.526Z,16.31
2022-07-29T00:27:28.513Z,16.36
2022-07-29T00:28:28.498Z,16.20
2022-07-29T00:29:34.114Z,16.31
2022-07-29T00:30:29.504Z,16.25
2022-07-29T00:31:28.571Z,16.25
2022-07-29T00:32:28.451Z,16.31
2022-07-29T00:33:28.430Z,16.31
2022-07-29T00:34:28.422Z,16.31
2022-07-29T00:35:28.407Z,16.25
2022-07-29T00:36:28.397Z,16.25
2022-07-29T00:37:28.381Z,16.36
2022-07-29T00:38:28.365Z,16.25
2022-07-29T00:39:28.357Z,16.31
2022-07-29T00:40:28.342Z,16.74
2022-07-29T00:41:28.327Z,16.20
2022-07-29T00:42:28.322Z,16.36
2022-07-29T00:43:28.301Z,16.25
2022-07-29T00:44:28.289Z,16.25
2022-07-29T00:45:28.283Z,16.20
2022-07-29T00:46:28.396Z,16.36
2022-07-29T00:47:28.258Z,16.31
2022-07-29T00:48:28.237Z,16.31
2022-07-29T00:49:28.375Z,16.25
2022-07-29T00:50:28.209Z,16.25
2022-07-29T00:51:28.197Z,16.25
2022-07-29T00:52:28.184Z,16.25
2022-07-29T00:53:28.176Z,16.31
2022-07-29T00:54:28.161Z,16.20
2022-07-29T00:55:28.146Z,16.36
2022-07-29T00:56:28.133Z,16.31
2022-07-29T00:57:28.127Z,16.31
2022-07-29T00:58:28.101Z,16.25
2022-07-29T00:59:34.712Z,16.31
2022-07-29T01:00:29.240Z,16.36
2022-07-29T01:01:28.170Z,16.20
2022-07-29T01:02:28.155Z,16.36
2022-07-29T01:03:28.040Z,16.36
2022-07-29T01:04:28.027Z,16.31
2022-07-29T01:05:50.188Z,16.25
2022-07-29T01:06:29.027Z,16.31
2022-07-29T01:07:27.988Z,16.25
2022-07-29T01:08:27.982Z,16.31
2022-07-29T01:09:35.016Z,16.25
2022-07-29T01:10:28.977Z,16.74
2022-07-29T01:11:27.934Z,16.25
2022-07-29T01:12:27.922Z,16.36
2022-07-29T01:13:27.911Z,16.25
2022-07-29T01:14:27.898Z,16.31
2022-07-29T01:15:27.883Z,16.25
2022-07-29T01:16:27.924Z,16.25
2022-07-29T01:17:27.857Z,16.31
2022-07-29T01:18:27.842Z,16.36
2022-07-29T01:19:27.833Z,16.58
2022-07-29T01:20:31.759Z,16.25
2022-07-29T01:21:27.807Z,16.25
2022-07-29T01:22:27.791Z,16.36
2022-07-29T01:23:27.779Z,16.31
2022-07-29T01:24:27.767Z,16.31
2022-07-29T01:25:27.752Z,16.31
2022-07-29T01:26:27.740Z,16.25
2022-07-29T01:27:27.728Z,16.31
2022-07-29T01:28:27.716Z,16.69
2022-07-29T01:29:36.155Z,16.31
2022-07-29T01:30:28.721Z,16.25
2022-07-29T01:31:27.748Z,16.25
2022-07-29T01:32:29.206Z,16.25
2022-07-29T01:33:27.655Z,16.36
2022-07-29T01:34:27.641Z,16.25
2022-07-29T01:35:27.627Z,16.36
2022-07-29T01:36:27.615Z,16.74
2022-07-29T01:37:27.601Z,16.20
2022-07-29T01:38:27.586Z,16.74
2022-07-29T01:39:27.578Z,16.25
2022-07-29T01:40:27.566Z,16.25
2022-07-29T01:41:27.548Z,16.36
2022-07-29T01:42:27.537Z,16.20
2022-07-29T01:43:27.521Z,16.36
2022-07-29T01:44:27.507Z,16.31
2022-07-29T01:45:27.497Z,16.31
2022-07-29T01:46:27.540Z,16.20
2022-07-29T01:47:27.473Z,16.69
2022-07-29T01:48:27.458Z,16.25
2022-07-29T01:49:27.512Z,16.63
2022-07-29T01:50:27.435Z,16.31
2022-07-29T01:51:27.423Z,16.25
2022-07-29T01:52:27.409Z,16.25
2022-07-29T01:53:27.399Z,16.31
2022-07-29T01:54:27.387Z,16.25
2022-07-29T01:55:27.372Z,16.36
2022-07-29T01:56:27.355Z,16.58
2022-07-29T01:57:27.346Z,16.31
2022-07-29T01:58:27.337Z,16.36
2022-07-29T01:59:27.322Z,16.25
2022-07-29T02:00:27.309Z,16.20
2022-07-29T02:01:27.359Z,16.25
2022-07-29T02:02:27.286Z,16.25
2022-07-29T02:03:27.275Z,16.31
2022-07-29T02:04:29.891Z,16.31
2022-07-29T02:05:27.329Z,16.25
2022-07-29T02:06:27.234Z,16.69
2022-07-29T02:07:27.222Z,16.69
2022-07-29T02:08:27.204Z,16.25
2022-07-29T02:09:27.193Z,16.36
2022-07-29T02:10:27.191Z,16.25
2022-07-29T02:11:27.171Z,16.25
2022-07-29T02:12:27.156Z,16.25
2022-07-29T02:13:27.143Z,16.63
2022-07-29T02:14:27.129Z,16.69
2022-07-29T02:15:27.118Z,16.69
2022-07-29T02:16:27.253Z,16.69
2022-07-29T02:17:27.094Z,16.25
2022-07-29T02:18:27.085Z,16.31
2022-07-29T02:19:27.068Z,16.31
2022-07-29T02:20:27.054Z,16.58
2022-07-29T02:21:27.040Z,16.31
2022-07-29T02:22:27.029Z,16.36
2022-07-29T02:23:27.015Z,16.25
2022-07-29T02:24:27.010Z,16.69
2022-07-29T02:25:37.166Z,16.31
2022-07-29T02:26:28.013Z,16.74
2022-07-29T02:27:26.971Z,16.69
2022-07-29T02:28:26.961Z,16.25
2022-07-29T02:29:26.945Z,16.31
2022-07-29T02:30:26.939Z,16.36
2022-07-29T02:31:27.085Z,16.69
2022-07-29T02:32:26.914Z,16.20
2022-07-29T02:33:26.917Z,16.31
2022-07-29T02:34:26.884Z,16.63
2022-07-29T02:35:26.874Z,16.69
2022-07-29T02:36:26.861Z,16.36
2022-07-29T02:37:26.849Z,16.74
2022-07-29T02:38:26.844Z,16.31
2022-07-29T02:39:26.825Z,16.31
2022-07-29T02:40:26.810Z,16.31
2022-07-29T02:41:26.801Z,16.36
2022-07-29T02:42:26.788Z,16.69
2022-07-29T02:43:26.774Z,16.63
2022-07-29T02:44:31.279Z,16.63
2022-07-29T02:45:27.780Z,16.69
2022-07-29T02:46:29.079Z,16.74
2022-07-29T02:47:26.727Z,16.25
2022-07-29T02:48:26.712Z,16.63
2022-07-29T02:49:26.735Z,16.31
2022-07-29T02:50:26.690Z,16.63
2022-07-29T02:51:41.072Z,16.69
2022-07-29T02:52:27.698Z,16.74
2022-07-29T02:53:26.652Z,16.25
2022-07-29T02:54:26.643Z,16.25
2022-07-29T02:55:26.633Z,16.69
2022-07-29T02:56:26.621Z,16.31
2022-07-29T02:57:26.605Z,16.31
2022-07-29T02:58:26.592Z,16.31
2022-07-29T02:59:26.583Z,16.69
2022-07-29T03:00:26.569Z,16.31
2022-07-29T03:01:26.654Z,16.69
2022-07-29T03:02:26.545Z,16.90
2022-07-29T03:03:26.532Z,16.69
2022-07-29T03:04:26.582Z,16.74
2022-07-29T03:05:26.505Z,16.63
2022-07-29T03:06:38.520Z,16.69
2022-07-29T03:07:27.521Z,16.63
2022-07-29T03:08:26.467Z,16.74
2022-07-29T03:09:26.457Z,16.69
2022-07-29T03:10:26.445Z,16.36
2022-07-29T03:11:40.113Z,16.63
2022-07-29T03:12:27.453Z,16.69
2022-07-29T03:13:26.413Z,16.74
2022-07-29T03:14:26.397Z,16.63
2022-07-29T03:15:26.384Z,16.74
2022-07-29T03:16:26.444Z,16.25
2022-07-29T03:17:26.362Z,16.63
2022-07-29T03:18:26.348Z,16.74
2022-07-29T03:19:26.339Z,16.47
2022-07-29T03:20:26.325Z,16.63
2022-07-29T03:21:26.313Z,16.63
2022-07-29T03:22:26.303Z,16.74
2022-07-29T03:23:26.287Z,16.69
2022-07-29T03:24:26.277Z,16.31
2022-07-29T03:25:26.265Z,16.69
2022-07-29T03:26:26.253Z,16.63
2022-07-29T03:27:26.240Z,16.25
2022-07-29T03:28:26.232Z,16.25
2022-07-29T03:29:33.165Z,16.74
2022-07-29T03:30:27.233Z,16.25
2022-07-29T03:31:26.248Z,16.63
2022-07-29T03:32:26.185Z,16.63
2022-07-29T03:33:26.173Z,16.69
2022-07-29T03:34:26.155Z,16.63
2022-07-29T03:35:26.154Z,16.25
2022-07-29T03:36:26.137Z,16.74
2022-07-29T03:37:26.121Z,16.69
2022-07-29T03:38:26.105Z,16.69
2022-07-29T03:39:26.098Z,16.31
2022-07-29T03:40:26.087Z,16.69
2022-07-29T03:41:26.072Z,16.69
2022-07-29T03:42:28.837Z,16.63
2022-07-29T03:43:26.048Z,16.69
2022-07-29T03:44:26.035Z,16.63
2022-07-29T03:45:26.026Z,16.63
2022-07-29T03:46:26.090Z,16.63
2022-07-29T03:47:45.179Z,16.31
2022-07-29T03:48:27.018Z,16.69
2022-07-29T03:49:26.027Z,16.63
2022-07-29T03:50:25.963Z,16.69
2022-07-29T03:51:33.182Z,16.20
2022-07-29T03:52:26.969Z,16.36
2022-07-29T03:53:25.927Z,16.69
2022-07-29T03:54:25.922Z,16.63
2022-07-29T03:55:25.901Z,16.63
2022-07-29T03:56:25.894Z,16.20
2022-07-29T03:57:25.878Z,16.69
2022-07-29T03:58:25.868Z,16.20
2022-07-29T03:59:25.858Z,16.69
2022-07-29T04:00:25.843Z,16.58
2022-07-29T04:01:25.887Z,16.69
2022-07-29T04:02:30.416Z,16.63
2022-07-29T04:03:25.897Z,16.31
2022-07-29T04:04:25.795Z,16.63
2022-07-29T04:05:25.790Z,16.69
2022-07-29T04:06:25.774Z,16.69
2022-07-29T04:07:25.758Z,16.69
2022-07-29T04:08:25.747Z,16.69
2022-07-29T04:09:25.736Z,16.63
2022-07-29T04:10:30.401Z,16.63
2022-07-29T04:11:26.746Z,16.69
2022-07-29T04:12:25.701Z,16.63
2022-07-29T04:13:25.686Z,16.69
2022-07-29T04:14:25.684Z,16.63
2022-07-29T04:15:25.661Z,16.74
2022-07-29T04:16:25.736Z,16.63
2022-07-29T04:17:25.640Z,16.58
2022-07-29T04:18:25.632Z,16.74
2022-07-29T04:19:25.614Z,16.63
2022-07-29T04:20:25.609Z,16.69
2022-07-29T04:21:25.596Z,16.69
2022-07-29T04:22:25.576Z,16.69
2022-07-29T04:23:25.568Z,16.69
2022-07-29T04:24:25.558Z,16.74
2022-07-29T04:25:25.545Z,16.74
2022-07-29T04:26:25.534Z,16.69
2022-07-29T04:27:25.517Z,16.63
2022-07-29T04:28:25.505Z,16.69
2022-07-29T04:29:25.499Z,16.63
2022-07-29T04:30:25.480Z,16.69
2022-07-29T04:31:26.138Z,16.63
2022-07-29T04:32:25.455Z,16.69
2022-07-29T04:33:25.446Z,16.69
2022-07-29T04:34:28.116Z,16.74
2022-07-29T04:35:25.421Z,16.63
2022-07-29T04:36:29.437Z,16.69
2022-07-29T04:37:25.393Z,16.69
2022-07-29T04:38:25.388Z,16.69
2022-07-29T04:39:25.374Z,16.74
2022-07-29T04:40:25.369Z,16.63
2022-07-29T04:41:32.858Z,16.74
2022-07-29T04:42:27.693Z,16.63
2022-07-29T04:43:25.327Z,16.69
2022-07-29T04:44:26.562Z,16.31
2022-07-29T04:45:25.297Z,16.31
2022-07-29T04:46:25.334Z,16.69
2022-07-29T04:47:25.277Z,16.63
2022-07-29T04:48:28.661Z,16.69
2022-07-29T04:49:25.346Z,16.25
2022-07-29T04:50:25.239Z,16.63
2022-07-29T04:51:25.228Z,16.69
2022-07-29T04:52:25.215Z,16.74
2022-07-29T04:53:25.202Z,16.58
2022-07-29T04:54:25.641Z,16.69
2022-07-29T04:55:25.177Z,16.74
2022-07-29T04:56:25.167Z,16.63
2022-07-29T04:57:25.155Z,16.63
2022-07-29T04:58:25.142Z,16.69
2022-07-29T04:59:25.130Z,16.74
2022-07-29T05:00:28.037Z,16.69
2022-07-29T05:01:26.223Z,16.69
2022-07-29T05:02:25.157Z,16.63
2022-07-29T05:03:25.080Z,16.74
2022-07-29T05:04:25.063Z,16.69
2022-07-29T05:05:25.055Z,16.69
2022-07-29T05:06:25.043Z,16.25
2022-07-29T05:07:25.029Z,16.69
2022-07-29T05:08:25.012Z,16.36
2022-07-29T05:09:25.004Z,16.69
2022-07-29T05:10:25.004Z,16.69
2022-07-29T05:11:28.663Z,16.74
2022-07-29T05:12:24.967Z,16.74
2022-07-29T05:13:24.955Z,16.69
2022-07-29T05:14:24.942Z,16.69
2022-07-29T05:15:24.956Z,16.74
2022-07-29T05:16:24.987Z,16.63
2022-07-29T05:17:24.903Z,16.69
2022-07-29T05:18:26.008Z,16.58
2022-07-29T05:19:24.880Z,16.20
2022-07-29T05:20:24.862Z,16.69
2022-07-29T05:21:24.850Z,16.63
2022-07-29T05:22:24.839Z,16.63
2022-07-29T05:23:24.826Z,16.63
2022-07-29T05:24:24.812Z,16.36
2022-07-29T05:25:24.800Z,16.69
2022-07-29T05:26:25.827Z,16.74
2022-07-29T05:27:24.774Z,16.69
2022-07-29T05:28:24.759Z,16.69
2022-07-29T05:29:42.466Z,16.69
2022-07-29T05:30:25.769Z,16.74
2022-07-29T05:31:24.778Z,16.74
2022-07-29T05:32:24.712Z,16.63
2022-07-29T05:33:34.924Z,16.74
2022-07-29T05:34:25.720Z,16.74
2022-07-29T05:35:24.676Z,16.63
2022-07-29T05:36:24.665Z,16.69
2022-07-29T05:37:24.650Z,16.63
2022-07-29T05:38:24.641Z,16.74
2022-07-29T05:39:47.246Z,16.63
2022-07-29T05:40:25.655Z,16.69
2022-07-29T05:41:24.600Z,16.79
2022-07-29T05:42:24.593Z,16.63
2022-07-29T05:43:24.577Z,16.69
2022-07-29T05:44:25.362Z,16.63
2022-07-29T05:45:24.552Z,16.63
2022-07-29T05:46:24.595Z,16.69
2022-07-29T05:47:24.527Z,16.69
2022-07-29T05:48:24.514Z,16.74
2022-07-29T05:49:26.991Z,16.69
2022-07-29T05:50:24.491Z,16.63
2022-07-29T05:51:24.475Z,16.74
2022-07-29T05:52:24.461Z,16.74
2022-07-29T05:53:24.461Z,16.69
2022-07-29T05:54:24.436Z,16.69
2022-07-29T05:55:24.423Z,16.63
2022-07-29T05:56:24.411Z,16.74
2022-07-29T05:57:24.396Z,16.74
2022-07-29T05:58:24.388Z,16.74
2022-07-29T05:59:29.818Z,16.69
2022-07-29T06:00:25.390Z,16.36
2022-07-29T06:01:24.436Z,16.74
2022-07-29T06:02:24.340Z,16.58
2022-07-29T06:03:24.323Z,16.63
2022-07-29T06:04:24.355Z,16.63
2022-07-29T06:05:24.300Z,16.36
2022-07-29T06:06:24.292Z,16.69
2022-07-29T06:07:24.275Z,16.69
2022-07-29T06:08:24.260Z,16.69
2022-07-29T06:09:24.245Z,16.58
2022-07-29T06:10:26.301Z,16.63
2022-07-29T06:11:24.226Z,16.69
2022-07-29T06:12:24.210Z,16.63
2022-07-29T06:13:24.195Z,16.63
2022-07-29T06:14:24.184Z,16.69
2022-07-29T06:15:24.171Z,16.69
2022-07-29T06:16:29.790Z,16.63
2022-07-29T06:17:25.177Z,16.74
2022-07-29T06:18:24.134Z,16.69
2022-07-29T06:19:24.124Z,16.69
2022-07-29T06:20:27.057Z,16.69
2022-07-29T06:21:24.098Z,16.63
2022-07-29T06:22:24.085Z,16.74
2022-07-29T06:23:24.076Z,16.63
2022-07-29T06:24:24.067Z,16.79
2022-07-29T06:25:24.061Z,16.74
2022-07-29T06:26:30.274Z,16.74
2022-07-29T06:27:25.053Z,16.63
2022-07-29T06:28:24.007Z,16.63
2022-07-29T06:29:23.998Z,16.69
2022-07-29T06:30:24.036Z,16.63
2022-07-29T06:31:24.126Z,16.69
2022-07-29T06:32:23.962Z,16.74
2022-07-29T06:33:23.948Z,16.69
2022-07-29T06:34:23.943Z,16.69
2022-07-29T06:35:39.329Z,16.69
2022-07-29T06:36:25.081Z,16.58
2022-07-29T06:37:23.902Z,16.63
2022-07-29T06:38:33.818Z,16.63
2022-07-29T06:39:24.900Z,16.63
2022-07-29T06:40:23.857Z,16.69
2022-07-29T06:41:23.848Z,16.63
2022-07-29T06:42:23.832Z,16.69
2022-07-29T06:43:23.825Z,16.63
2022-07-29T06:44:23.812Z,16.63
2022-07-29T06:45:23.802Z,16.69
2022-07-29T06:46:24.123Z,16.74
2022-07-29T06:47:23.774Z,16.69
2022-07-29T06:48:23.765Z,16.74
2022-07-29T06:49:23.865Z,16.69
2022-07-29T06:50:23.733Z,16.69
2022-07-29T06:51:24.264Z,16.69
2022-07-29T06:52:23.712Z,16.69
2022-07-29T06:53:23.694Z,16.69
2022-07-29T06:54:23.690Z,16.69
2022-07-29T06:55:25.245Z,16.74
2022-07-29T06:56:23.658Z,16.69
2022-07-29T06:57:23.639Z,16.63
2022-07-29T06:58:23.644Z,16.74
2022-07-29T06:59:32.093Z,16.69
2022-07-29T07:00:24.799Z,16.69
2022-07-29T07:01:23.705Z,16.69
2022-07-29T07:02:23.654Z,16.74
2022-07-29T07:03:23.576Z,16.74
2022-07-29T07:04:23.567Z,16.69
2022-07-29T07:05:23.547Z,16.74
2022-07-29T07:06:23.545Z,16.79
2022-07-29T07:07:23.520Z,16.79
2022-07-29T07:08:23.517Z,16.63
2022-07-29T07:09:23.502Z,16.74
2022-07-29T07:10:23.486Z,16.63
2022-07-29T07:11:23.485Z,16.69
2022-07-29T07:12:23.468Z,16.63
2022-07-29T07:13:23.456Z,16.69
2022-07-29T07:14:23.446Z,16.63
2022-07-29T07:15:38.494Z,16.69
2022-07-29T07:16:24.485Z,16.74
2022-07-29T07:17:23.403Z,16.69
2022-07-29T07:18:23.398Z,16.69
2022-07-29T07:19:23.388Z,16.74
2022-07-29T07:20:23.467Z,16.74
2022-07-29T07:21:23.360Z,16.69
2022-07-29T07:22:23.350Z,16.69
2022-07-29T07:23:23.333Z,16.69
2022-07-29T07:24:23.322Z,16.69
2022-07-29T07:25:23.316Z,16.69
2022-07-29T07:26:23.306Z,16.69
2022-07-29T07:27:23.281Z,16.69
2022-07-29T07:28:24.674Z,16.63
2022-07-29T07:29:23.268Z,16.63
2022-07-29T07:30:23.304Z,16.69
2022-07-29T07:31:23.310Z,16.69
2022-07-29T07:32:23.287Z,16.69
2022-07-29T07:33:23.220Z,16.74
2022-07-29T07:34:29.590Z,16.69
2022-07-29T07:35:24.222Z,16.69
2022-07-29T07:36:23.174Z,16.63
2022-07-29T07:37:23.167Z,16.74
2022-07-29T07:38:23.157Z,16.63
2022-07-29T07:39:23.150Z,16.74
2022-07-29T07:40:23.226Z,16.69
2022-07-29T07:41:23.117Z,16.69
2022-07-29T07:42:23.104Z,16.63
2022-07-29T07:43:23.099Z,16.69
2022-07-29T07:44:23.657Z,16.74
2022-07-29T07:45:23.072Z,16.69
2022-07-29T07:46:23.143Z,16.74
2022-07-29T07:47:23.051Z,16.69
2022-07-29T07:48:23.031Z,16.63
2022-07-29T07:49:23.218Z,16.69
2022-07-29T07:50:23.012Z,16.69
2022-07-29T07:51:23.003Z,16.69
2022-07-29T07:52:22.990Z,16.63
2022-07-29T07:53:22.978Z,16.74
2022-07-29T07:54:22.962Z,16.74
2022-07-29T07:55:22.948Z,16.63
2022-07-29T07:56:22.935Z,16.69
2022-07-29T07:57:22.925Z,16.69
2022-07-29T07:58:22.916Z,16.63
2022-07-29T07:59:22.905Z,16.63
2022-07-29T08:00:23.670Z,16.74
2022-07-29T08:01:22.954Z,16.69
2022-07-29T08:02:22.930Z,16.69
2022-07-29T08:03:22.850Z,16.69
2022-07-29T08:04:27.672Z,16.74
2022-07-29T08:05:22.830Z,16.69
2022-07-29T08:06:22.819Z,16.63
2022-07-29T08:07:22.808Z,16.69
2022-07-29T08:08:22.789Z,16.63
2022-07-29T08:09:29.412Z,16.74
2022-07-29T08:10:23.803Z,16.63
2022-07-29T08:11:22.756Z,16.69
2022-07-29T08:12:22.745Z,16.63
2022-07-29T08:13:22.734Z,16.69
2022-07-29T08:14:22.725Z,16.74
2022-07-29T08:15:22.708Z,16.63
2022-07-29T08:16:22.770Z,16.63
2022-07-29T08:17:22.695Z,16.69
2022-07-29T08:18:22.674Z,16.69
2022-07-29T08:19:22.669Z,16.69
2022-07-29T08:20:22.651Z,16.69
2022-07-29T08:21:22.646Z,16.69
2022-07-29T08:22:22.624Z,16.63
2022-07-29T08:23:22.612Z,16.69
2022-07-29T08:24:22.607Z,16.74
2022-07-29T08:25:22.592Z,16.69
2022-07-29T08:26:22.579Z,16.63
2022-07-29T08:27:42.340Z,16.69
2022-07-29T08:28:25.699Z,16.79
2022-07-29T08:29:22.539Z,16.63
2022-07-29T08:30:22.533Z,16.74
2022-07-29T08:31:22.615Z,16.69
2022-07-29T08:32:50.729Z,16.63
2022-07-29T08:33:23.523Z,16.63
2022-07-29T08:34:27.670Z,16.63
2022-07-29T08:35:22.479Z,16.69
2022-07-29T08:36:22.455Z,16.69
2022-07-29T08:37:22.442Z,16.69
2022-07-29T08:38:22.437Z,16.69
2022-07-29T08:39:22.416Z,16.63
2022-07-29T08:40:30.498Z,16.69
2022-07-29T08:41:23.427Z,16.69
2022-07-29T08:42:22.385Z,16.69
2022-07-29T08:43:22.373Z,16.69
2022-07-29T08:44:27.519Z,16.63
2022-07-29T08:45:23.448Z,16.69
2022-07-29T08:46:22.427Z,16.74
2022-07-29T08:47:22.325Z,16.69
2022-07-29T08:48:22.333Z,16.63
2022-07-29T08:49:22.370Z,16.69
2022-07-29T08:50:22.290Z,16.74
2022-07-29T08:51:22.274Z,16.69
2022-07-29T08:52:22.261Z,16.69
2022-07-29T08:53:22.259Z,16.69
2022-07-29T08:54:22.238Z,16.74
2022-07-29T08:55:22.231Z,16.74
2022-07-29T08:56:22.209Z,16.74
2022-07-29T08:57:22.205Z,16.69
2022-07-29T08:58:23.198Z,16.69
2022-07-29T08:59:22.179Z,16.63
2022-07-29T09:00:22.179Z,16.63
2022-07-29T09:01:22.291Z,16.69
2022-07-29T09:02:22.142Z,16.58
2022-07-29T09:03:22.310Z,16.63
2022-07-29T09:04:22.120Z,16.74
2022-07-29T09:05:22.106Z,16.69
2022-07-29T09:06:22.094Z,16.69
2022-07-29T09:07:22.079Z,16.74
2022-07-29T09:08:22.242Z,16.58
2022-07-29T09:09:22.060Z,16.69
2022-07-29T09:10:22.049Z,16.63
2022-07-29T09:11:22.036Z,16.63
2022-07-29T09:12:29.562Z,16.74
2022-07-29T09:13:23.051Z,16.96
2022-07-29T09:14:21.996Z,16.69
2022-07-29T09:15:21.984Z,16.79
2022-07-29T09:16:43.879Z,16.79
2022-07-29T09:17:23.051Z,16.63
2022-07-29T09:18:30.837Z,16.69
2022-07-29T09:19:22.968Z,16.63
2022-07-29T09:20:21.928Z,16.69
2022-07-29T09:21:21.914Z,16.63
2022-07-29T09:22:21.904Z,16.69
2022-07-29T09:23:23.826Z,16.63
2022-07-29T09:24:21.887Z,16.63
2022-07-29T09:25:21.868Z,16.74
2022-07-29T09:26:21.856Z,16.79
2022-07-29T09:27:21.861Z,16.63
2022-07-29T09:28:22.072Z,16.69
2022-07-29T09:29:21.827Z,16.63
2022-07-29T09:30:31.381Z,16.69
2022-07-29T09:31:22.867Z,16.79
2022-07-29T09:32:21.788Z,16.74
2022-07-29T09:33:22.069Z,16.69
2022-07-29T09:34:21.760Z,16.63
2022-07-29T09:35:21.750Z,16.69
2022-07-29T09:36:21.735Z,16.69
2022-07-29T09:37:21.725Z,16.74
2022-07-29T09:38:21.728Z,16.69
2022-07-29T09:39:22.061Z,16.69
2022-07-29T09:40:21.689Z,16.63
2022-07-29T09:41:21.678Z,16.74
2022-07-29T09:42:21.665Z,16.69
2022-07-29T09:43:21.654Z,16.69
2022-07-29T09:44:21.642Z,16.63
2022-07-29T09:45:21.628Z,16.74
2022-07-29T09:46:21.669Z,16.69
2022-07-29T09:47:21.602Z,16.69
2022-07-29T09:48:21.587Z,16.58
2022-07-29T09:49:21.642Z,16.63
2022-07-29T09:50:21.567Z,16.58
2022-07-29T09:51:26.934Z,16.74
2022-07-29T09:52:22.593Z,16.74
2022-07-29T09:53:21.530Z,16.69
2022-07-29T09:54:21.518Z,16.69
2022-07-29T09:55:21.510Z,16.74
2022-07-29T09:56:21.493Z,16.63
2022-07-29T09:57:21.536Z,16.63
2022-07-29T09:58:21.471Z,16.63
2022-07-29T09:59:21.461Z,16.69
2022-07-29T10:00:21.445Z,16.74
2022-07-29T10:01:21.486Z,16.63
2022-07-29T10:02:23.954Z,16.74
2022-07-29T10:03:21.494Z,16.63
2022-07-29T10:04:21.408Z,16.69
2022-07-29T10:05:21.387Z,16.58
2022-07-29T10:06:21.377Z,16.74
2022-07-29T10:07:21.363Z,16.69
2022-07-29T10:08:21.352Z,16.63
2022-07-29T10:09:22.312Z,16.63
2022-07-29T10:10:21.331Z,16.69
2022-07-29T10:11:21.314Z,16.74
2022-07-29T10:12:21.302Z,16.63
2022-07-29T10:13:21.293Z,16.69
2022-07-29T10:14:21.277Z,16.74
2022-07-29T10:15:21.267Z,16.69
2022-07-29T10:16:21.331Z,16.90
2022-07-29T10:17:21.244Z,16.69
2022-07-29T10:18:21.239Z,16.69
2022-07-29T10:19:21.217Z,16.69
2022-07-29T10:20:21.209Z,16.63
2022-07-29T10:21:22.645Z,16.74
2022-07-29T10:22:50.431Z,16.69
2022-07-29T10:23:22.200Z,16.63
2022-07-29T10:24:21.159Z,16.69
2022-07-29T10:25:21.149Z,16.63
2022-07-29T10:26:21.139Z,16.63
2022-07-29T10:27:21.137Z,16.69
2022-07-29T10:28:21.111Z,16.69
2022-07-29T10:29:21.502Z,16.74
2022-07-29T10:30:21.093Z,16.74
2022-07-29T10:31:21.160Z,16.69
2022-07-29T10:32:21.063Z,16.69
2022-07-29T10:33:21.060Z,16.74
2022-07-29T10:34:21.041Z,16.74
2022-07-29T10:35:21.029Z,16.63
2022-07-29T10:36:21.058Z,16.63
2022-07-29T10:37:21.008Z,16.63
2022-07-29T10:38:20.993Z,16.69
2022-07-29T10:39:22.205Z,16.69
2022-07-29T10:40:20.966Z,16.69
2022-07-29T10:41:20.954Z,16.69
2022-07-29T10:42:29.511Z,16.63
2022-07-29T10:43:22.261Z,16.69
2022-07-29T10:44:22.893Z,16.69
2022-07-29T10:45:20.907Z,16.69
2022-07-29T10:46:20.944Z,16.63
2022-07-29T10:47:20.888Z,16.69
2022-07-29T10:48:20.885Z,16.69
2022-07-29T10:49:24.380Z,16.74
2022-07-29T10:50:20.849Z,16.69
2022-07-29T10:51:20.857Z,16.74
2022-07-29T10:52:20.830Z,16.69
2022-07-29T10:53:20.815Z,16.69
2022-07-29T10:54:20.803Z,16.74
2022-07-29T10:55:20.794Z,16.63
2022-07-29T10:56:20.777Z,16.31
2022-07-29T10:57:20.876Z,16.63
2022-07-29T10:58:20.752Z,16.63
2022-07-29T10:59:21.495Z,16.74
2022-07-29T11:00:20.730Z,16.63
2022-07-29T11:01:37.558Z,16.63
2022-07-29T11:02:41.065Z,16.74
2022-07-29T11:03:21.793Z,16.69
2022-07-29T11:04:20.679Z,16.36
2022-07-29T11:05:20.666Z,16.63
2022-07-29T11:06:26.592Z,16.25
2022-07-29T11:07:21.686Z,16.20
2022-07-29T11:08:26.012Z,16.52
2022-07-29T11:09:35.257Z,16.58
2022-07-29T11:10:21.654Z,16.31
2022-07-29T11:11:22.225Z,16.25
2022-07-29T11:12:20.584Z,16.69
2022-07-29T11:13:20.571Z,16.25
2022-07-29T11:14:26.520Z,16.69
2022-07-29T11:15:21.586Z,16.25
2022-07-29T11:16:20.536Z,16.20
2022-07-29T11:17:20.527Z,16.31
2022-07-29T11:18:20.515Z,16.63
2022-07-29T11:19:21.538Z,16.63
2022-07-29T11:20:21.519Z,16.25
2022-07-29T11:21:23.397Z,16.31
2022-07-29T11:22:20.464Z,16.36
2022-07-29T11:23:20.451Z,16.31
2022-07-29T11:24:29.169Z,16.25
2022-07-29T11:25:51.013Z,16.25
2022-07-29T11:26:23.123Z,16.31
2022-07-29T11:27:20.401Z,16.31
2022-07-29T11:28:23.103Z,16.25
2022-07-29T11:29:20.374Z,16.25
2022-07-29T11:30:20.370Z,16.31
2022-07-29T11:31:20.356Z,16.25
2022-07-29T11:32:22.682Z,16.36
2022-07-29T11:33:20.328Z,16.36
2022-07-29T11:34:21.351Z,16.25
2022-07-29T11:35:36.876Z,16.25
2022-07-29T11:36:28.119Z,16.25
2022-07-29T11:37:28.028Z,16.25
2022-07-29T11:38:21.295Z,16.25
2022-07-29T11:39:20.247Z,16.31
2022-07-29T11:40:20.301Z,16.25
2022-07-29T11:41:20.980Z,16.36
2022-07-29T11:42:28.144Z,16.36
2022-07-29T11:43:21.229Z,16.31
2022-07-29T11:44:20.187Z,16.36
2022-07-29T11:45:44.978Z,16.20
2022-07-29T11:46:25.132Z,16.25
2022-07-29T11:47:20.172Z,16.36
2022-07-29T11:48:28.693Z,16.36
2022-07-29T11:49:22.034Z,16.31
2022-07-29T11:50:21.138Z,16.31
2022-07-29T11:51:20.098Z,16.20
2022-07-29T11:52:21.123Z,16.31
2022-07-29T11:53:20.072Z,16.25
2022-07-29T11:54:20.057Z,16.25
2022-07-29T11:55:21.073Z,16.25
2022-07-29T11:56:20.023Z,16.25
2022-07-29T11:57:20.015Z,16.20
2022-07-29T11:58:19.999Z,16.25
2022-07-29T11:59:19.997Z,16.25
2022-07-29T12:00:19.975Z,16.31
2022-07-29T12:01:19.963Z,16.31
2022-07-29T12:02:37.201Z,16.31
2022-07-29T12:03:20.963Z,16.25
2022-07-29T12:04:21.010Z,16.31
2022-07-29T12:05:35.790Z,16.31
2022-07-29T12:06:21.164Z,16.25
2022-07-29T12:07:20.173Z,16.25
2022-07-29T12:08:19.877Z,16.36
2022-07-29T12:09:19.856Z,16.31
2022-07-29T12:10:30.676Z,16.31
2022-07-29T12:11:21.731Z,16.20
2022-07-29T12:12:19.827Z,16.25
2022-07-29T12:13:19.804Z,16.31
2022-07-29T12:14:19.795Z,16.31
2022-07-29T12:15:20.368Z,16.25
2022-07-29T12:16:25.743Z,16.31
2022-07-29T12:17:20.777Z,16.31
2022-07-29T12:18:19.742Z,16.31
2022-07-29T12:19:19.728Z,16.31
2022-07-29T12:20:20.446Z,16.25
2022-07-29T12:21:19.709Z,16.25
2022-07-29T12:22:20.730Z,16.31
2022-07-29T12:23:19.676Z,16.25
2022-07-29T12:24:19.652Z,16.36
2022-07-29T12:25:34.995Z,16.31
2022-07-29T12:26:25.480Z,16.25
2022-07-29T12:27:19.626Z,16.25
2022-07-29T12:28:27.561Z,16.25
2022-07-29T12:29:34.700Z,16.31
2022-07-29T12:30:20.617Z,16.25
2022-07-29T12:31:43.096Z,16.25
2022-07-29T12:32:20.658Z,16.31
2022-07-29T12:33:19.547Z,16.31
2022-07-29T12:34:19.533Z,16.31
2022-07-29T12:35:19.526Z,16.20
2022-07-29T12:36:19.513Z,16.36
2022-07-29T12:37:19.506Z,16.25
2022-07-29T12:38:19.485Z,16.25
2022-07-29T12:39:19.472Z,16.31
2022-07-29T12:40:19.462Z,16.36
2022-07-29T12:41:19.445Z,16.25
2022-07-29T12:42:19.435Z,16.31
2022-07-29T12:43:19.418Z,16.36
2022-07-29T12:44:19.418Z,16.31
2022-07-29T12:45:19.403Z,16.25
2022-07-29T12:46:19.521Z,16.31
2022-07-29T12:47:19.422Z,16.31
2022-07-29T12:48:19.357Z,16.25
2022-07-29T12:49:19.418Z,16.25
2022-07-29T12:50:23.290Z,16.36
2022-07-29T12:51:20.360Z,16.36
2022-07-29T12:52:19.305Z,16.31